createdAt,value
2022-08-22T00:00:17.840Z,2.78
2022-08-22T00:02:56.261Z,2.90
2022-08-22T00:03:03.564Z,2.50
2022-08-22T00:03:09.860Z,2.63
2022-08-22T00:03:33.581Z,2.40
2022-08-22T00:06:25.998Z,2.50
2022-08-22T00:09:37.697Z,2.50
2022-08-22T00:12:33.660Z,2.60
2022-08-22T00:15:43.393Z,2.65
2022-08-22T00:19:13.138Z,2.38
2022-08-22T00:22:19.785Z,2.92
2022-08-22T00:25:42.811Z,2.67
2022-08-22T00:28:48.406Z,2.70
2022-08-22T00:32:11.013Z,2.45
2022-08-22T00:35:03.390Z,2.50
2022-08-22T00:38:09.613Z,2.50
2022-08-22T00:41:05.519Z,2.65
2022-08-22T00:44:55.942Z,2.60
2022-08-22T00:47:57.007Z,2.70
2022-08-22T00:51:10.490Z,2.40
2022-08-22T00:54:38.017Z,2.47
2022-08-22T00:57:29.810Z,2.80
2022-08-22T01:00:26.543Z,2.65
2022-08-22T01:03:34.198Z,2.70
2022-08-22T01:06:45.759Z,2.70
2022-08-22T01:10:04.381Z,2.60
2022-08-22T01:13:24.449Z,2.63
2022-08-22T01:16:32.381Z,2.55
2022-08-22T01:19:21.625Z,2.50
2022-08-22T01:22:38.004Z,2.95
2022-08-22T01:25:45.305Z,2.70
2022-08-22T01:29:13.305Z,2.33
2022-08-22T01:32:27.021Z,2.40
2022-08-22T01:35:39.533Z,2.60
2022-08-22T01:39:06.250Z,2.38
2022-08-22T01:42:08.012Z,2.60
2022-08-22T01:45:24.000Z,2.33
2022-08-22T01:48:25.113Z,2.47
2022-08-22T01:51:23.340Z,2.47
2022-08-22T01:54:38.780Z,2.30
2022-08-22T01:57:28.824Z,2.15
2022-08-22T02:00:35.379Z,2.45
2022-08-22T02:03:40.794Z,2.33
2022-08-22T02:07:24.126Z,2.40
2022-08-22T02:10:45.740Z,2.50
2022-08-22T02:13:48.059Z,2.35
2022-08-22T02:16:42.016Z,2.30
2022-08-22T02:19:56.725Z,2.50
2022-08-22T02:23:23.142Z,2.50
2022-08-22T02:26:26.400Z,2.50
2022-08-22T02:29:23.857Z,2.30
2022-08-22T02:32:22.029Z,2.38
2022-08-22T02:35:14.497Z,2.50
2022-08-22T02:38:36.694Z,2.17
2022-08-22T02:41:37.125Z,2.28
2022-08-22T02:44:35.116Z,2.30
2022-08-22T02:47:31.149Z,2.40
2022-08-22T02:50:35.835Z,2.25
2022-08-22T02:53:39.546Z,2.00
2022-08-22T02:56:59.226Z,2.58
2022-08-22T03:00:30.959Z,2.30
2022-08-22T03:03:26.620Z,2.20
2022-08-22T03:06:39.930Z,2.10
2022-08-22T03:09:38.962Z,2.22
2022-08-22T03:12:33.126Z,2.50
2022-08-22T03:15:35.251Z,2.28
2022-08-22T03:21:52.901Z,2.60
2022-08-22T03:25:00.741Z,2.58
2022-08-22T03:28:09.828Z,2.20
2022-08-22T03:31:09.697Z,2.20
2022-08-22T03:34:24.374Z,2.10
2022-08-22T03:37:16.686Z,2.10
2022-08-22T03:40:27.830Z,2.00
2022-08-22T03:43:26.398Z,2.08
2022-08-22T03:46:51.370Z,2.10
2022-08-22T03:50:05.025Z,2.10
2022-08-22T03:53:28.690Z,2.03
2022-08-22T03:56:40.751Z,2.20
2022-08-22T03:59:54.780Z,2.00
2022-08-22T04:02:44.485Z,2.25
2022-08-22T04:05:56.232Z,2.08
2022-08-22T04:09:22.339Z,2.13
2022-08-22T04:12:34.855Z,2.25
2022-08-22T04:15:46.457Z,2.38
2022-08-22T04:18:48.261Z,2.20
2022-08-22T04:22:22.440Z,2.13
2022-08-22T04:25:34.747Z,2.22
2022-08-22T04:31:35.859Z,2.30
2022-08-22T04:34:36.976Z,1.95
2022-08-22T04:37:49.950Z,2.17
2022-08-22T04:40:48.627Z,1.90
2022-08-22T04:43:48.493Z,2.30
2022-08-22T04:46:50.990Z,2.05
2022-08-22T04:49:44.910Z,2.13
2022-08-22T04:52:36.769Z,1.90
2022-08-22T04:55:47.852Z,2.03
2022-08-22T04:58:49.170Z,1.95
2022-08-22T05:01:41.529Z,2.10
2022-08-22T05:04:33.137Z,1.88
2022-08-22T05:07:35.893Z,2.08
2022-08-22T05:10:35.420Z,2.00
2022-08-22T05:13:32.302Z,1.95
2022-08-22T05:16:38.342Z,2.15
2022-08-22T05:19:35.780Z,2.10
2022-08-22T05:22:30.120Z,2.20
2022-08-22T05:25:23.273Z,2.00
2022-08-22T05:28:24.977Z,1.80
2022-08-22T05:31:17.763Z,2.00
2022-08-22T05:34:21.980Z,2.00
2022-08-22T05:37:27.194Z,1.80
2022-08-22T05:40:25.465Z,1.80
2022-08-22T05:43:14.899Z,1.65
2022-08-22T05:46:08.714Z,1.50
2022-08-22T05:49:00.856Z,1.55
2022-08-22T05:52:07.010Z,1.65
2022-08-22T05:55:04.657Z,1.60
2022-08-22T05:58:04.233Z,1.60
2022-08-22T06:01:19.460Z,1.52
2022-08-22T06:04:32.413Z,1.63
2022-08-22T06:07:44.968Z,1.85
2022-08-22T06:10:48.820Z,1.60
2022-08-22T06:13:42.989Z,1.60
2022-08-22T06:16:55.959Z,1.88
2022-08-22T06:19:51.762Z,1.48
2022-08-22T06:22:52.419Z,1.52
2022-08-22T06:25:48.049Z,1.77
2022-08-22T06:28:55.076Z,1.75
2022-08-22T06:31:49.781Z,1.95
2022-08-22T06:34:42.930Z,1.63
2022-08-22T06:37:40.826Z,1.77
2022-08-22T06:40:31.057Z,1.70
2022-08-22T06:43:21.769Z,1.85
2022-08-22T06:46:13.753Z,1.60
2022-08-22T06:49:04.396Z,1.73
2022-08-22T06:51:55.073Z,1.70
2022-08-22T06:54:47.525Z,1.70
2022-08-22T06:57:51.612Z,1.70
2022-08-22T07:00:46.599Z,1.52
2022-08-22T07:03:45.328Z,1.67
2022-08-22T07:06:50.377Z,1.60
2022-08-22T07:09:42.474Z,1.83
2022-08-22T07:12:36.499Z,1.80
2022-08-22T07:15:37.684Z,1.85
2022-08-22T07:18:31.016Z,1.90
2022-08-22T07:21:30.102Z,1.90
2022-08-22T07:24:26.583Z,1.80
2022-08-22T07:27:38.413Z,1.90
2022-08-22T07:30:42.130Z,2.00
2022-08-22T07:33:45.148Z,1.75
2022-08-22T07:36:49.593Z,2.00
2022-08-22T07:39:43.326Z,2.15
2022-08-22T07:42:50.830Z,1.90
2022-08-22T07:45:54.963Z,1.60
2022-08-22T07:49:08.495Z,1.98
2022-08-22T07:52:02.873Z,1.65
2022-08-22T07:55:25.510Z,1.80
2022-08-22T08:01:11.444Z,1.90
2022-08-22T08:04:13.454Z,1.80
2022-08-22T08:07:07.294Z,1.90
2022-08-22T08:10:13.263Z,1.90
2022-08-22T08:13:07.806Z,1.98
2022-08-22T08:15:58.454Z,2.25
2022-08-22T08:18:50.994Z,1.90
2022-08-22T08:21:50.632Z,2.38
2022-08-22T08:24:43.721Z,2.63
2022-08-22T08:27:57.266Z,2.17
2022-08-22T08:31:10.962Z,2.17
2022-08-22T08:34:14.626Z,2.20
2022-08-22T08:37:34.307Z,2.00
2022-08-22T08:40:32.405Z,1.92
2022-08-22T08:43:46.518Z,1.90
2022-08-22T08:47:21.105Z,1.92
2022-08-22T08:50:22.323Z,1.90
2022-08-22T08:56:20.116Z,2.20
2022-08-22T08:59:43.163Z,2.40
2022-08-22T09:02:54.710Z,2.00
2022-08-22T09:06:13.821Z,2.22
2022-08-22T09:09:52.745Z,2.10
2022-08-22T09:13:20.705Z,2.08
2022-08-22T09:16:25.504Z,2.38
2022-08-22T09:19:43.441Z,2.40
2022-08-22T09:23:03.961Z,2.03
2022-08-22T09:25:59.433Z,2.60
2022-08-22T09:29:11.914Z,2.30
2022-08-22T09:32:01.087Z,2.00
2022-08-22T09:35:05.733Z,2.38
2022-08-22T09:38:24.785Z,2.35
2022-08-22T09:41:32.523Z,2.08
2022-08-22T09:44:34.228Z,2.80
2022-08-22T09:47:32.779Z,2.15
2022-08-22T09:50:33.364Z,2.20
2022-08-22T09:53:46.112Z,2.30
2022-08-22T09:56:52.641Z,2.42
2022-08-22T10:00:14.702Z,2.33
2022-08-22T10:03:19.905Z,2.30
2022-08-22T10:06:19.714Z,2.33
2022-08-22T10:09:31.215Z,2.10
2022-08-22T10:12:36.267Z,2.63
2022-08-22T10:15:57.583Z,2.55
2022-08-22T10:19:03.183Z,2.20
2022-08-22T10:22:16.377Z,2.40
2022-08-22T10:25:25.271Z,2.50
2022-08-22T10:28:24.086Z,2.20
2022-08-22T10:31:26.597Z,2.30
2022-08-22T10:34:41.207Z,2.17
2022-08-22T10:37:46.036Z,2.20
2022-08-22T10:40:45.361Z,2.40
2022-08-22T10:43:47.453Z,2.13
2022-08-22T10:46:46.212Z,2.17
2022-08-22T10:49:54.465Z,2.30
2022-08-22T10:53:13.566Z,2.33
2022-08-22T10:56:21.421Z,2.30
2022-08-22T10:59:26.324Z,2.50
2022-08-22T11:02:42.147Z,2.50
2022-08-22T11:05:36.719Z,2.22
2022-08-22T11:08:50.243Z,2.40
2022-08-22T11:11:52.591Z,2.63
2022-08-22T11:15:06.167Z,2.45
2022-08-22T11:18:18.966Z,2.13
2022-08-22T11:21:17.663Z,2.40
2022-08-22T11:24:53.919Z,2.58
2022-08-22T11:28:10.318Z,2.65
2022-08-22T11:31:10.524Z,2.40
2022-08-22T11:34:11.258Z,2.30
2022-08-22T11:37:15.510Z,2.22
2022-08-22T11:40:05.228Z,2.40
2022-08-22T11:43:32.529Z,2.30
2022-08-22T11:46:37.509Z,2.33
2022-08-22T11:49:51.349Z,2.60
2022-08-22T11:53:08.761Z,2.22
2022-08-22T11:56:19.438Z,2.22
2022-08-22T11:59:34.341Z,2.60
2022-08-22T12:02:44.135Z,2.22
2022-08-22T12:06:04.899Z,2.10
2022-08-22T12:09:24.458Z,2.50
2022-08-22T12:12:35.411Z,2.40
2022-08-22T12:15:34.867Z,2.50
2022-08-22T12:18:32.071Z,2.35
2022-08-22T12:22:09.270Z,2.60
2022-08-22T12:25:35.919Z,2.53
2022-08-22T12:28:40.917Z,2.50
2022-08-22T12:32:10.053Z,2.20
2022-08-22T12:35:30.128Z,2.55
2022-08-22T12:38:49.674Z,2.42
2022-08-22T12:41:46.801Z,2.15
2022-08-22T12:45:47.928Z,2.08
2022-08-22T12:48:58.800Z,2.40
2022-08-22T12:52:04.315Z,2.08
2022-08-22T12:55:18.957Z,2.20
2022-08-22T12:58:23.818Z,2.50
2022-08-22T13:01:14.439Z,2.30
2022-08-22T13:04:32.564Z,2.30
2022-08-22T13:07:28.454Z,2.42
2022-08-22T13:10:33.959Z,2.15
2022-08-22T13:13:57.745Z,2.20
2022-08-22T13:16:51.315Z,2.10
2022-08-22T13:19:54.870Z,2.53
2022-08-22T13:22:45.623Z,2.20
2022-08-22T13:25:59.493Z,2.67
2022-08-22T13:29:24.730Z,2.40
2022-08-22T13:32:44.441Z,2.10
2022-08-22T13:35:52.085Z,2.25
2022-08-22T13:39:08.675Z,2.30
2022-08-22T13:42:14.152Z,2.28
2022-08-22T13:45:12.082Z,2.28
2022-08-22T13:48:09.057Z,2.20
2022-08-22T13:51:14.849Z,2.30
2022-08-22T13:54:36.454Z,2.22
2022-08-22T13:57:30.623Z,1.90
2022-08-22T14:00:28.844Z,2.47
2022-08-22T14:03:26.602Z,1.90
2022-08-22T14:06:32.741Z,2.30
2022-08-22T14:09:54.264Z,2.08
2022-08-22T14:13:12.409Z,2.00
2022-08-22T14:16:10.451Z,2.25
2022-08-22T14:19:06.832Z,2.20
2022-08-22T14:22:14.420Z,2.20
2022-08-22T14:25:18.174Z,1.83
2022-08-22T14:28:28.523Z,2.28
2022-08-22T14:31:26.745Z,2.40
2022-08-22T14:34:17.750Z,2.40
2022-08-22T14:37:17.534Z,2.15
2022-08-22T14:40:29.059Z,2.10
2022-08-22T14:43:55.150Z,1.90
2022-08-22T14:46:57.740Z,2.03
2022-08-22T14:52:45.040Z,2.22
2022-08-22T14:55:35.130Z,2.10
2022-08-22T14:58:27.591Z,2.13
2022-08-22T15:01:21.637Z,2.40
2022-08-22T15:04:18.953Z,2.38
2022-08-22T15:07:10.495Z,2.17
2022-08-22T15:10:11.870Z,2.10
2022-08-22T15:13:08.738Z,1.83
2022-08-22T15:16:03.580Z,2.00
2022-08-22T15:18:56.307Z,1.90
2022-08-22T15:21:46.980Z,2.13
2022-08-22T15:24:42.849Z,1.90
2022-08-22T15:27:36.909Z,2.30
2022-08-22T15:30:44.449Z,1.77
2022-08-22T15:33:45.423Z,2.00
2022-08-22T15:36:35.675Z,2.00
2022-08-22T15:39:34.652Z,2.30
2022-08-22T15:42:34.677Z,2.05
2022-08-22T15:45:52.941Z,2.08
2022-08-22T15:48:49.172Z,2.10
2022-08-22T15:51:47.182Z,2.08
2022-08-22T15:54:57.165Z,1.98
2022-08-22T15:58:14.046Z,2.17
2022-08-22T16:01:22.310Z,2.20
2022-08-22T16:04:16.093Z,2.00
2022-08-22T16:07:23.972Z,2.13
2022-08-22T16:10:25.815Z,1.95
2022-08-22T16:13:39.284Z,2.10
2022-08-22T16:16:46.855Z,2.08
2022-08-22T16:19:38.469Z,2.28
2022-08-22T16:23:00.135Z,2.00
2022-08-22T16:25:49.505Z,1.85
2022-08-22T16:28:58.326Z,2.10
2022-08-22T16:31:48.188Z,2.15
2022-08-22T16:34:37.628Z,1.90
2022-08-22T16:37:26.942Z,2.10
2022-08-22T16:40:26.326Z,2.20
2022-08-22T16:43:20.246Z,2.20
2022-08-22T16:46:36.421Z,2.15
2022-08-22T16:49:36.789Z,1.98
2022-08-22T16:52:26.211Z,2.03
2022-08-22T16:55:31.022Z,1.90
2022-08-22T16:58:35.813Z,1.92
2022-08-22T17:01:46.269Z,2.30
2022-08-22T17:04:45.735Z,2.30
2022-08-22T17:07:47.872Z,2.20
2022-08-22T17:10:46.681Z,2.40
2022-08-22T17:14:12.549Z,2.17
2022-08-22T17:17:51.512Z,2.10
2022-08-22T17:20:53.536Z,1.88
2022-08-22T17:24:07.443Z,2.17
2022-08-22T17:27:08.687Z,1.90
2022-08-22T17:30:14.841Z,1.88
2022-08-22T17:33:13.501Z,1.88
2022-08-22T17:36:26.881Z,2.10
2022-08-22T17:39:25.263Z,1.90
2022-08-22T17:42:39.338Z,2.00
2022-08-22T17:45:50.953Z,1.80
2022-08-22T17:49:22.865Z,1.90
2022-08-22T17:52:44.307Z,1.80
2022-08-22T17:55:55.429Z,1.65
2022-08-22T17:58:59.769Z,1.70
2022-08-22T18:02:18.620Z,1.83
2022-08-22T18:05:08.785Z,2.00
2022-08-22T18:08:37.319Z,1.80
2022-08-22T18:11:27.645Z,1.95
2022-08-22T18:14:37.561Z,1.90
2022-08-22T18:17:36.514Z,1.95
2022-08-22T18:20:46.854Z,1.85
2022-08-22T18:23:40.366Z,1.80
2022-08-22T18:26:41.122Z,2.10
2022-08-22T18:29:48.748Z,1.70
2022-08-22T18:33:00.592Z,1.67
2022-08-22T18:36:08.977Z,2.00
2022-08-22T18:39:24.978Z,1.90
2022-08-22T18:42:46.222Z,1.92
2022-08-22T18:45:47.973Z,1.90
2022-08-22T18:49:12.091Z,1.70
2022-08-22T18:52:16.881Z,2.08
2022-08-22T18:55:28.295Z,1.70
2022-08-22T18:58:42.716Z,1.67
2022-08-22T19:01:53.915Z,1.70
2022-08-22T19:05:07.193Z,1.75
2022-08-22T19:08:22.477Z,1.80
2022-08-22T19:11:18.190Z,1.60
2022-08-22T19:14:30.637Z,1.88
2022-08-22T19:17:45.090Z,1.80
2022-08-22T19:21:34.805Z,1.63
2022-08-22T19:24:26.968Z,1.98
2022-08-22T19:27:30.998Z,1.80
2022-08-22T19:30:40.349Z,1.65
2022-08-22T19:33:41.254Z,1.92
2022-08-22T19:36:34.129Z,1.80
2022-08-22T19:39:41.693Z,1.67
2022-08-22T19:42:35.254Z,1.88
2022-08-22T19:45:29.878Z,1.75
2022-08-22T19:48:29.267Z,1.95
2022-08-22T19:51:22.043Z,1.60
2022-08-22T19:54:24.393Z,1.75
2022-08-22T19:57:38.162Z,1.60
2022-08-22T20:01:04.377Z,1.80
2022-08-22T20:04:06.990Z,1.80
2022-08-22T20:10:11.171Z,1.83
2022-08-22T20:13:19.742Z,1.80
2022-08-22T20:16:22.716Z,2.03
2022-08-22T20:19:12.846Z,2.00
2022-08-22T20:22:04.888Z,1.80
2022-08-22T20:24:59.279Z,1.65
2022-08-22T20:28:02.782Z,1.80
2022-08-22T20:31:02.001Z,1.85
2022-08-22T20:34:00.015Z,2.03
2022-08-22T20:37:04.288Z,1.88
2022-08-22T20:40:54.662Z,1.90
2022-08-22T20:43:42.235Z,2.03
2022-08-22T20:46:55.072Z,2.08
2022-08-22T20:49:49.299Z,2.05
2022-08-22T20:52:51.956Z,2.08
2022-08-22T20:55:57.531Z,1.73
2022-08-22T20:58:49.951Z,2.28
2022-08-22T21:04:43.088Z,2.08
2022-08-22T21:07:36.464Z,1.98
2022-08-22T21:10:47.962Z,1.98
2022-08-22T21:13:38.644Z,1.90
2022-08-22T21:16:35.078Z,2.42
2022-08-22T21:19:30.590Z,2.00
2022-08-22T21:22:29.515Z,2.30
2022-08-22T21:25:20.627Z,1.90
2022-08-22T21:28:10.143Z,2.00
2022-08-22T21:31:02.607Z,2.00
2022-08-22T21:33:55.412Z,2.08
2022-08-22T21:36:45.190Z,2.30
2022-08-22T21:39:45.764Z,2.10
2022-08-22T21:42:39.270Z,2.00
2022-08-22T21:45:42.295Z,2.17
2022-08-22T21:48:47.178Z,1.90
2022-08-22T21:51:47.587Z,2.10
2022-08-22T21:54:41.271Z,1.95
2022-08-22T21:57:36.658Z,2.25
2022-08-22T22:00:48.685Z,2.10
2022-08-22T22:03:39.435Z,2.13
2022-08-22T22:06:29.071Z,1.95
2022-08-22T22:09:19.435Z,2.08
2022-08-22T22:12:10.645Z,2.10
2022-08-22T22:14:59.974Z,1.92
2022-08-22T22:17:49.673Z,2.00
2022-08-22T22:20:39.354Z,1.90
2022-08-22T22:23:29.727Z,2.03
2022-08-22T22:26:20.561Z,1.98
2022-08-22T22:29:11.762Z,2.25
2022-08-22T22:32:01.229Z,2.15
2022-08-22T22:34:50.702Z,2.00
2022-08-22T22:37:41.665Z,1.80
2022-08-22T22:40:32.419Z,1.92
2022-08-22T22:43:22.234Z,2.17
2022-08-22T22:46:11.738Z,1.90
2022-08-22T22:49:01.309Z,1.98
2022-08-22T22:51:50.610Z,2.00
2022-08-22T22:54:39.860Z,2.00
2022-08-22T22:57:30.630Z,2.28
2022-08-22T23:00:33.536Z,2.08
2022-08-22T23:03:23.261Z,1.98
2022-08-22T23:06:22.259Z,1.98
2022-08-22T23:09:11.769Z,1.90
2022-08-22T23:12:03.985Z,2.10
2022-08-22T23:14:53.589Z,2.20
2022-08-22T23:17:43.714Z,1.90
2022-08-22T23:20:33.336Z,2.15
2022-08-22T23:23:22.848Z,1.90
2022-08-22T23:26:16.280Z,2.22
2022-08-22T23:29:06.787Z,2.08
2022-08-22T23:31:59.581Z,2.28
2022-08-22T23:34:49.775Z,2.15
2022-08-22T23:37:39.178Z,2.17
2022-08-22T23:40:28.927Z,2.20
2022-08-22T23:43:18.466Z,2.30
2022-08-22T23:46:07.814Z,2.00
2022-08-22T23:48:57.658Z,2.10
2022-08-22T23:51:48.373Z,2.20
2022-08-22T23:54:37.689Z,2.17
2022-08-22T23:57:27.600Z,2.20
